Latest Weather Observations for Khancoban

IDN60801

Issued at 9:05 pm EDT Saturday 25 October 2014 (issued every 30 minutes, with the page automatically refreshed every 10 minutes)

About weather observations | Map of weather stations | Latest weather observations for NSW | Other Formats
Station Details ID: 072162 Name: KHANCOBAN AWS Lat: -36.23 Lon: 148.14 Height: 339.3 m
Data from the previous 72 hours. | See also: Recent months at Khancoban
Date/Time
EDT
Temp
°C
App
Temp
°C
Dew
Point
Rel
Hum
%
Delta-T
°C
Wind Press
QNH
hPa
Press
MSL
hPa
Rain
since 9 am
mm
Dir
 
Spd
km/h
Gust
km/h
Spd
kts
Gust
kts
25/09:00pm 17.4 18.9 15.7 90 1.0 S 2 6 1 3 1012.3 1012.0 0.0
25/08:30pm 19.1 21.0 15.8 81 2.0 SSE 0 0 0 0 1011.9 1011.6 0.0
25/08:00pm 18.8 19.3 14.9 78 2.3 S 6 9 3 5 1011.8 1011.5 0.0
25/07:30pm 21.2 22.6 15.5 70 3.4 SSW 2 7 1 4 1011.7 1011.4 0.0
25/07:00pm 24.0 26.9 18.2 70 3.7 CALM 0 0 0 0 1011.6 1011.3 0.0
25/06:30pm 25.4 26.4 17.8 62 4.8 WSW 9 9 5 5 1011.5 1011.2 0.0
25/06:00pm 25.9 28.0 16.2 55 6.0 CALM 0 0 0 0 1012.3 1012.0 0.0
25/05:30pm 27.2 28.3 16.5 52 6.7 WSW 6 7 3 4 1012.6 1012.3 0.0
25/05:00pm 28.0 27.5 12.8 39 9.0 SSW 7 9 4 5 1012.8 1012.5 0.0
25/04:30pm 29.1 28.7 11.2 33 10.4 S 4 9 2 5 1012.7 1012.4 0.0
25/04:00pm 27.2 26.4 12.8 41 8.5 N 9 13 5 7 1013.1 1012.8 0.0
25/03:30pm 27.4 28.0 15.4 48 7.4 WNW 6 9 3 5 1013.8 1013.5 0.0
25/03:00pm 28.2 28.9 16.1 47 7.6 E 7 9 4 5 1013.7 1013.4 0.0
25/02:30pm 28.1 26.9 11.6 36 9.6 WNW 9 13 5 7 1014.4 1014.1 0.0
25/02:00pm 28.4 28.6 13.1 39 9.2 W 4 9 2 5 1014.5 1014.2 0.0
25/01:30pm 27.9 28.2 14.5 44 8.2 SW 6 9 3 5 1014.9 1014.7 0.0
25/01:00pm 26.5 27.1 15.2 49 6.9 ESE 6 9 3 5 1015.4 1015.1 0.0
25/12:30pm 25.5 25.8 13.4 47 7.2 SSE 4 9 2 5 1015.9 1015.6 0.0
25/12:00pm 24.7 26.0 15.1 55 5.8 ENE 2 7 1 4 1016.4 1016.1 0.0
25/11:30am 24.0 24.8 13.8 53 6.1 NW 2 7 1 4 1016.8 1016.5 0.0
25/11:00am 22.7 23.0 13.5 56 5.4 WNW 4 9 2 5 1017.2 1017.0 0.0
25/10:30am 21.8 23.1 14.2 62 4.5 CALM 0 7 0 4 1017.4 1017.2 0.0
25/10:00am 20.5 21.9 14.4 68 3.6 NNW 0 0 0 0 1017.3 1017.1 0.0
25/09:30am 18.6 19.2 13.2 71 3.1 NW 2 7 1 4 1017.3 1017.1 0.0
25/09:00am 17.1 18.6 14.7 86 1.4 CALM 0 0 0 0 1017.3 1017.1 0.0
25/08:30am 15.8 17.3 14.7 93 0.6 CALM 0 0 0 0 1017.4 1017.2 0.0
25/08:00am 14.3 15.7 14.3 100 0.0 CALM 0 0 0 0 1017.6 1017.4 0.0
25/07:30am 12.7 13.5 12.7 100 0.0 CALM 0 0 0 0 1017.3 1017.1 0.0
25/07:00am 11.2 11.6 11.2 100 0.0 CALM 0 0 0 0 1017.1 1016.8 0.0
25/06:30am 10.5 10.7 10.5 100 0.0 CALM 0 0 0 0 1016.6 1016.3 0.0
25/06:00am 10.5 9.9 10.5 100 0.0 SSE 4 9 2 5 1016.3 1016.0 0.0
25/05:30am 11.7 12.2 11.7 100 0.0 CALM 0 0 0 0 1016.3 1016.0 0.0
25/05:00am 11.8 12.4 11.8 100 0.0 CALM 0 0 0 0 1016.1 1015.8 0.0
25/04:30am 11.9 12.1 11.9 100 0.0 N 2 7 1 4 1016.0 1015.7 0.0
25/04:00am 11.7 12.2 11.7 100 0.0 CALM 0 0 0 0 1015.7 1015.4 0.0
25/03:30am 11.9 12.1 11.9 100 0.0 W 2 9 1 5 1015.5 1015.2 0.0
25/03:00am 12.5 12.1 12.5 100 0.0 SSE 6 7 3 4 1015.6 1015.3 0.0
25/02:30am 13.0 12.8 13.0 100 0.0 NE 6 9 3 5 1015.6 1015.3 0.0
25/02:00am 13.0 12.6 13.0 100 0.0 NNE 7 9 4 5 1015.6 1015.3 0.0
25/01:30am 13.5 14.2 13.5 100 0.0 NE 2 6 1 3 1015.4 1015.1 0.0
25/01:00am 13.6 14.0 13.6 100 0.0 NNE 4 7 2 4 1015.6 1015.3 0.0
25/12:30am 13.5 13.5 13.5 100 0.0 SSE 6 9 3 5 1015.7 1015.4 0.0
25/12:00am 15.0 16.2 15.0 100 0.0 ESE 2 7 1 4 1015.7 1015.4 0.0
 
Date/Time
EDT
Temp
°C
App
Temp
°C
Dew
Point
Rel
Hum
%
Delta-T
°C
Wind Press
QNH
hPa
Press
MSL
hPa
Rain
since 9 am
mm
Dir
 
Spd
km/h
Gust
km/h
Spd
kts
Gust
kts
24/11:30pm 14.5 15.9 14.5 100 0.0 CALM 0 0 0 0 1015.6 1015.3 0.0
24/11:00pm 15.2 15.7 15.0 99 0.1 SSW 6 9 3 5 1015.6 1015.3 0.0
24/10:30pm 15.0 16.6 15.0 100 0.0 CALM 0 6 0 3 1015.3 1015.0 0.0
24/10:00pm 16.8 19.1 16.8 100 0.0 CALM 0 0 0 0 1014.9 1014.7 0.0
24/09:30pm 16.6 17.7 15.5 93 0.7 SSW 4 6 2 3 1014.5 1014.2 0.0
24/09:00pm 17.6 19.2 15.9 90 1.0 S 2 7 1 4 1014.2 1013.9 0.0
24/08:30pm 19.1 20.0 16.7 86 1.5 SE 7 9 4 5 1013.6 1013.3 0.0
24/08:00pm 19.6 21.0 17.4 87 1.4 S 6 11 3 6 1013.1 1012.8 0.0
24/07:30pm 21.2 23.2 17.8 81 2.1 SE 4 7 2 4 1012.9 1012.6 0.0
24/07:00pm 23.3 26.5 18.8 76 2.9 CALM 0 6 0 3 1012.5 1012.2 0.0
24/06:30pm 23.7 26.0 19.4 77 2.8 NNE 6 11 3 6 1011.8 1011.5 0.0
24/06:00pm 25.4 27.8 18.8 67 4.3 SW 4 7 2 4 1011.7 1011.4 0.0
24/05:30pm 25.7 28.9 20.5 73 3.4 S 4 7 2 4 1011.4 1011.1 0.0
24/05:00pm 26.0 28.0 18.7 64 4.7 S 6 9 3 5 1011.5 1011.2 0.0
24/04:30pm 26.7 28.0 17.2 56 6.0 E 6 7 3 4 1011.5 1011.2 0.0
24/04:00pm 28.1 28.7 15.4 46 7.9 N 6 11 3 6 1011.6 1011.3 0.0
24/03:30pm 27.7 27.5 15.7 48 7.5 N 11 17 6 9 1012.3 1012.0 0.0
24/03:00pm 27.9 26.9 13.4 40 8.7 NNW 11 15 6 8 1012.6 1012.3 0.0
24/02:30pm 28.5 26.8 13.6 40 9.0 NW 15 24 8 13 1012.8 1012.5 0.0
24/02:00pm 28.9 27.0 14.3 40 8.9 NNW 17 24 9 13 1013.1 1012.8 0.0
24/01:30pm 28.8 26.9 14.2 40 8.9 WNW 17 26 9 14 1013.5 1013.2 0.0
24/01:00pm 28.2 26.1 14.8 44 8.2 NNW 19 30 10 16 1013.7 1013.4 0.0
24/12:30pm 27.4 27.2 14.8 46 7.7 W 9 24 5 13 1014.0 1013.7 0.0
24/12:00pm 26.4 26.6 14.2 47 7.4 W 6 9 3 5 1014.7 1014.5 0.0
24/11:30am 25.4 25.2 12.9 45 7.4 N 6 13 3 7 1015.4 1015.1 0.0
24/11:00am 24.5 24.0 12.1 46 7.2 SW 6 9 3 5 1015.8 1015.5 0.0
24/10:30am 23.1 24.1 13.3 54 5.8 CALM 0 2 0 1 1016.0 1015.7 0.0
24/10:00am 21.3 21.2 12.2 56 5.2 N 4 7 2 4 1016.6 1016.3 0.0
24/09:30am 19.6 20.7 13.5 68 3.5 CALM 0 0 0 0 1016.6 1016.3 0.0
24/09:00am 18.1 19.4 14.2 78 2.3 CALM 0 6 0 3 1016.8 1016.5 0.0
24/08:30am 15.7 17.0 14.1 90 0.9 CALM 0 0 0 0 1017.1 1016.8 0.0
24/08:00am 13.3 14.3 13.3 100 0.0 CALM 0 0 0 0 1017.3 1017.1 0.0
24/07:30am 12.4 13.2 12.4 100 0.0 CALM 0 0 0 0 1017.0 1016.7 0.0
24/07:00am 11.4 10.7 11.4 100 0.0 N 6 11 3 6 1016.7 1016.4 0.0
24/06:30am 12.0 12.6 12.0 100 0.0 CALM 0 0 0 0 1016.5 1016.2 0.0
24/06:00am 12.3 13.0 12.3 100 0.0 CALM 0 0 0 0 1016.4 1016.1 0.0
24/05:30am 12.5 13.3 12.5 100 0.0 CALM 0 0 0 0 1016.2 1015.9 0.0
24/05:00am 12.1 11.6 12.1 100 0.0 NE 6 9 3 5 1016.2 1015.9 0.0
24/04:30am 12.5 12.9 12.5 100 0.0 SE 2 7 1 4 1016.2 1015.9 0.0
24/04:00am 12.8 13.5 12.2 96 0.3 CALM 0 4 0 2 1016.3 1016.0 0.0
24/03:30am 13.7 14.6 12.9 95 0.4 CALM 0 0 0 0 1016.6 1016.3 0.0
24/03:00am 14.1 14.8 12.1 88 1.1 CALM 0 0 0 0 1016.6 1016.3 0.0
24/02:30am 14.3 13.9 12.3 88 1.1 S 6 9 3 5 1016.9 1016.6 0.0
24/02:00am 14.8 15.5 12.3 85 1.4 CALM 0 0 0 0 1017.0 1016.7 0.0
24/01:30am 15.3 14.4 12.6 84 1.5 NE 9 13 5 7 1017.1 1016.8 0.0
24/01:00am 15.7 15.3 12.5 81 1.8 S 6 7 3 4 1017.4 1017.2 0.0
24/12:30am 15.3 15.7 12.4 83 1.6 ESE 2 9 1 5 1017.7 1017.5 0.0
24/12:00am 17.8 18.4 12.0 69 3.2 CALM 0 6 0 3 1017.6 1017.4 0.0
 
Date/Time
EDT
Temp
°C
App
Temp
°C
Dew
Point
Rel
Hum
%
Delta-T
°C
Wind Press
QNH
hPa
Press
MSL
hPa
Rain
since 9 am
mm
Dir
 
Spd
km/h
Gust
km/h
Spd
kts
Gust
kts
23/11:30pm 18.6 17.7 11.4 63 4.0 SE 7 15 4 8 1017.3 1017.1 0.0
23/11:00pm 21.0 19.5 10.5 51 5.8 SE 9 17 5 9 1017.2 1017.0 0.0
23/10:30pm 20.2 18.5 11.1 56 5.1 S 11 17 6 9 1017.0 1016.7 0.0
23/10:00pm 20.2 18.9 11.4 57 4.9 S 9 17 5 9 1016.9 1016.6 0.0
23/09:30pm 21.2 19.1 11.2 53 5.6 S 13 22 7 12 1016.8 1016.5 0.0
23/09:00pm 21.4 18.4 12.0 55 5.3 SSE 19 26 10 14 1016.4 1016.1 0.0
23/08:30pm 21.1 19.0 12.3 57 5.0 SSW 15 22 8 12 1016.1 1015.8 0.0
23/08:00pm 23.9 21.2 11.6 46 7.0 SE 17 28 9 15 1015.8 1015.5 0.0
23/07:30pm 25.0 20.4 11.2 42 7.9 E 26 43 14 23 1015.4 1015.1 0.0
23/07:19pm 25.4 20.4 10.8 40 8.3 E 28 46 15 25 1015.3 1015.0 0.0
23/07:00pm 25.5 27.5 16.9 59 5.4 NNW 2 7 1 4 1014.6 1014.4 0.0
23/06:30pm 28.1 29.5 15.4 46 7.9 W 2 6 1 3 1014.3 1014.0 0.0
23/06:00pm 30.5 31.3 12.4 33 10.8 CALM 0 0 0 0 1014.0 1013.7 0.0
23/05:30pm 30.2 30.4 11.7 32 10.9 W 2 6 1 3 1014.3 1014.0 0.0
23/05:00pm 29.3 28.2 11.8 34 10.3 WNW 9 11 5 6 1014.4 1014.1 0.0
23/04:30pm 30.0 28.3 10.0 29 11.5 NW 9 13 5 7 1014.6 1014.4 0.0
23/04:00pm 29.2 27.1 11.3 33 10.4 NNW 13 15 7 8 1014.8 1014.6 0.0
23/03:30pm 29.8 28.8 10.4 30 11.2 NW 6 7 3 4 1015.0 1014.8 0.0
23/03:00pm 29.5 29.0 10.6 31 10.9 NNE 4 9 2 5 1015.4 1015.1 0.0
23/02:30pm 29.2 28.1 9.8 30 11.1 NNW 6 13 3 7 1015.9 1015.6 0.0
23/02:00pm 28.6 26.1 11.2 34 10.1 NW 15 19 8 10 1016.5 1016.2 0.0
23/01:30pm 28.2 26.9 14.8 44 8.2 NW 15 20 8 11 1016.8 1016.5 0.0
23/01:00pm 27.5 26.6 14.8 45 7.8 WNW 13 17 7 9 1017.2 1017.0 0.0
23/12:30pm 27.0 28.1 14.7 47 7.5 W 2 7 1 4 1017.4 1017.2 0.0
23/12:00pm 26.0 26.2 14.1 47 7.2 WSW 6 9 3 5 1017.8 1017.6 0.0
23/11:30am 24.7 25.6 13.9 51 6.4 WSW 2 9 1 5 1018.5 1018.2 0.0
23/11:00am 23.5 23.9 13.7 54 5.8 WNW 4 9 2 5 1018.8 1018.5 0.0
23/10:30am 22.9 23.0 13.9 57 5.3 W 6 9 3 5 1018.8 1018.5 0.0
23/10:00am 22.0 22.0 14.1 61 4.7 E 7 9 4 5 1019.0 1018.7 0.0
23/09:30am 20.1 19.9 14.7 71 3.2 NW 9 13 5 7 1019.3 1019.0 0.0
23/09:00am 18.8 19.5 15.5 81 2.0 NW 6 9 3 5 1019.2 1018.9 0.0
23/08:30am 17.2 17.9 16.1 93 0.7 NNW 7 9 4 5 1019.4 1019.1 0.0
23/08:00am 15.4 15.8 15.4 100 0.0 WSW 7 9 4 5 1019.5 1019.2 0.0
23/07:30am 14.4 15.1 14.4 100 0.0 ENE 4 7 2 4 1019.6 1019.3 0.0
23/07:00am 12.5 13.3 12.5 100 0.0 CALM 0 0 0 0 1019.4 1019.1 0.0
23/06:30am 13.3 13.0 13.3 100 0.0 SSE 7 9 4 5 1019.2 1018.9 0.0
23/06:00am 14.0 15.3 14.0 100 0.0 CALM 0 4 0 2 1019.1 1018.8 0.0
23/05:30am 14.1 15.4 14.1 100 0.0 CALM 0 6 0 3 1019.0 1018.7 0.0
23/05:00am 13.6 13.6 13.6 100 0.0 SE 6 7 3 4 1018.5 1018.2 0.0
23/04:30am 14.5 14.4 13.9 96 0.3 NW 7 15 4 8 1018.7 1018.4 0.0
23/04:00am 15.0 14.1 14.8 99 0.1 SSE 13 17 7 9 1018.8 1018.5 0.0
23/03:30am 15.4 15.4 14.3 93 0.6 E 7 13 4 7 1019.1 1018.8 0.0
23/03:00am 14.6 14.4 14.6 100 0.0 ENE 9 17 5 9 1019.7 1019.5 0.0
23/02:30am 14.6 14.4 14.6 100 0.0 NE 9 13 5 7 1018.6 1018.3 0.0
23/02:00am 13.9 14.0 13.9 100 0.0 SSE 6 7 3 4 1018.5 1018.2 0.0
23/01:30am 14.1 14.6 14.1 100 0.0 N 4 7 2 4 1019.1 1018.8 0.0
23/01:00am 13.3 14.0 13.3 100 0.0 ESE 2 7 1 4 1019.6 1019.3 0.0
23/12:30am 14.1 15.4 14.1 100 0.0 CALM 0 0 0 0 1019.7 1019.5 0.0
23/12:00am 14.3 15.7 14.3 100 0.0 CALM 0 0 0 0 1019.7 1019.5 0.0
 
Date/Time
EDT
Temp
°C
App
Temp
°C
Dew
Point
Rel
Hum
%
Delta-T
°C
Wind Press
QNH
hPa
Press
MSL
hPa
Rain
since 9 am
mm
Dir
 
Spd
km/h
Gust
km/h
Spd
kts
Gust
kts
22/11:30pm 14.2 15.5 14.2 100 0.0 CALM 0 0 0 0 1019.9 1019.7 0.0
22/11:00pm 14.3 15.6 14.1 99 0.1 CALM 0 0 0 0 1019.9 1019.7 0.0
22/10:30pm 15.1 16.4 15.1 100 0.0 N 2 6 1 3 1019.7 1019.5 0.0
22/10:00pm 15.3 16.8 14.7 96 0.3 CALM 0 0 0 0 1019.7 1019.5 0.0
22/09:30pm 15.0 15.5 14.0 94 0.6 NW 4 9 2 5 1019.6 1019.3 0.0

Other Formats:

Comma delimited format used in spreadsheet applications
http://www.bom.gov.au/fwo/IDN60801/IDN60801.94919.axf

JavaScript Object Notation format (JSON) in row-major order
http://www.bom.gov.au/fwo/IDN60801/IDN60801.94919.json